Time;durP1;ratioP1;P1;durP2;ratioP2;P2;SDS_P1;SDS_P2;PMS_P1;PMS_P2;Temp;Humidity;BMP_temperature;BMP_pressure;BME280_temperature;BME280_humidity;BME280_pressure;Samples;Min_cycle;Max_cycle;Signal;HPM_P1;HPM_P2
2022/07/28 00:02:22;;;;;;;;;;;;;;;;;;4984886;28;19918;-59
2022/07/28 00:04:47;;;;;;;;;;;;;;;;;;4993472;28;19971;-59
2022/07/28 00:07:13;;;;;;;;;;;;;;;;;;4987464;28;19917;-60
2022/07/28 00:09:38;;;;;;;;;;;;;;;;;;4992940;28;20028;-61
2022/07/28 00:12:03;;;;;;;;;;;;;;;;;;4986994;28;19928;-60
2022/07/28 00:14:28;;;;;;;;;;;;;;;;;;4988385;28;19917;-61
2022/07/28 00:16:53;;;;;;;;;;;;;;;;;;4997083;28;20074;-60
2022/07/28 00:19:19;;;;;;;;;;;;;;;;;;4990110;28;19979;-61
2022/07/28 00:21:44;;;;;;;;;;;;;;;;;;4997070;28;19914;-61
2022/07/28 00:24:09;;;;;;;;;;;;;;;;;;4990426;28;20150;-61
2022/07/28 00:26:34;;;;;;;;;;;;;;;;;;4992709;28;20021;-61
2022/07/28 00:29:00;;;;;;;;;;;;;;;;;;4993120;28;20441;-59
2022/07/28 00:31:25;;;;;;;;;;;;;;;;;;4994503;28;19972;-60
2022/07/28 00:33:50;;;;;;;;;;;;;;;;;;4998213;28;19929;-59
2022/07/28 00:36:15;;;;;;;;;;;;;;;;;;4991220;28;19944;-60
2022/07/28 00:38:40;;;;;;;;;;;;;;;;;;4992286;28;19922;-61
2022/07/28 00:41:12;;;;;;;;;;;;;;;;;;4997145;28;19918;-59
2022/07/28 00:43:37;;;;;;;;;;;;;;;;;;4989243;28;19924;-60
2022/07/28 00:46:02;;;;;;;;;;;;;;;;;;4998663;28;19917;-60
2022/07/28 00:48:27;;;;;;;;;;;;;;;;;;4994352;28;19917;-61
2022/07/28 00:50:52;;;;;;;;;;;;;;;;;;4991865;28;19925;-59
2022/07/28 00:53:18;;;;;;;;;;;;;;;;;;4980520;28;19918;-61
2022/07/28 00:55:43;;;;;;;;;;;;;;;;;;4990718;28;19922;-61
2022/07/28 00:58:08;;;;;;;;;;;;;;;;;;4996643;28;20579;-60
2022/07/28 01:00:33;;;;;;;;;;;;;;;;;;4993261;28;19921;-60
2022/07/28 01:02:58;;;;;;;;;;;;;;;;;;4991627;28;19917;-60
2022/07/28 01:05:24;;;;;;;;;;;;;;;;;;4995827;28;19918;-60
2022/07/28 01:07:49;;;;;;;;;;;;;;;;;;4992053;28;20862;-59
2022/07/28 01:10:14;;;;;;;;;;;;;;;;;;4996824;28;20282;-60
2022/07/28 01:12:39;;;;;;;;;;;;;;;;;;4991252;28;20008;-59
2022/07/28 01:15:04;;;;;;;;;;;;;;;;;;4991866;28;19928;-59
2022/07/28 01:17:30;;;;;;;;;;;;;;;;;;4995663;28;19933;-60
2022/07/28 01:19:55;;;;;;;;;;;;;;;;;;4988065;28;19963;-60
2022/07/28 01:22:21;;;;;;;;;;;;;;;;;;4997894;28;21134;-60
2022/07/28 01:24:47;;;;;;;;;;;;;;;;;;4986994;28;20388;-60
2022/07/28 01:27:12;;;;;;;;;;;;;;;;;;4987816;28;20416;-61
2022/07/28 01:29:37;;;;;;;;;;;;;;;;;;4995269;28;19918;-60
2022/07/28 01:32:02;;;;;;;;;;;;;;;;;;4988573;28;19980;-60
2022/07/28 01:34:27;;;;;;;;;;;;;;;;;;4993030;28;19937;-61
2022/07/28 01:36:53;;;;;;;;;;;;;;;;;;4988886;28;20036;-60
2022/07/28 01:39:18;;;;;;;;;;;;;;;;;;4989518;28;20421;-60
2022/07/28 01:41:43;;;;;;;;;;;;;;;;;;4994274;28;20000;-60
2022/07/28 01:44:08;;;;;;;;;;;;;;;;;;4989592;28;19928;-60
2022/07/28 01:46:34;;;;;;;;;;;;;;;;;;4995323;28;20040;-60
2022/07/28 01:48:59;;;;;;;;;;;;;;;;;;4988257;28;19952;-60
2022/07/28 01:51:24;;;;;;;;;;;;;;;;;;4989620;28;19992;-60
2022/07/28 01:53:49;;;;;;;;;;;;;;;;;;4995788;28;20278;-59
2022/07/28 01:56:14;;;;;;;;;;;;;;;;;;4988569;28;20255;-59
2022/07/28 01:58:40;;;;;;;;;;;;;;;;;;4991459;28;20046;-59
2022/07/28 02:01:05;;;;;;;;;;;;;;;;;;4988711;28;19921;-60
2022/07/28 02:03:30;;;;;;;;;;;;;;;;;;4969036;28;20514;-61
2022/07/28 02:05:55;;;;;;;;;;;;;;;;;;4990194;28;19933;-59
2022/07/28 02:08:20;;;;;;;;;;;;;;;;;;4986914;28;19925;-58
2022/07/28 02:13:30;;;;;;;;;;;;;;;;;;4988334;28;19979;-59
2022/07/28 02:15:55;;;;;;;;;;;;;;;;;;4986645;28;20017;-59
2022/07/28 02:18:20;;;;;;;;;;;;;;;;;;4991343;28;20523;-59
2022/07/28 02:20:45;;;;;;;;;;;;;;;;;;4986961;28;19932;-60
2022/07/28 02:23:13;;;;;;;;;;;;;;;;;;4994997;28;19949;-58
2022/07/28 02:25:38;;;;;;;;;;;;;;;;;;4990283;28;19981;-59
2022/07/28 02:28:03;;;;;;;;;;;;;;;;;;4990201;28;20016;-59
2022/07/28 02:30:28;;;;;;;;;;;;;;;;;;4992177;28;20028;-59
2022/07/28 02:32:54;;;;;;;;;;;;;;;;;;4988622;28;19925;-60
2022/07/28 02:35:19;;;;;;;;;;;;;;;;;;4992131;28;20008;-59
2022/07/28 02:37:44;;;;;;;;;;;;;;;;;;4987907;28;19931;-58
2022/07/28 02:40:10;;;;;;;;;;;;;;;;;;4986971;28;19922;-59
2022/07/28 02:42:35;;;;;;;;;;;;;;;;;;4993296;28;20542;-59
2022/07/28 02:45:00;;;;;;;;;;;;;;;;;;4987443;28;19996;-60
2022/07/28 02:47:25;;;;;;;;;;;;;;;;;;4983943;28;19917;-59
2022/07/28 02:49:50;;;;;;;;;;;;;;;;;;4990514;28;19918;-59
2022/07/28 02:52:16;;;;;;;;;;;;;;;;;;4986913;28;19964;-58
2022/07/28 02:54:41;;;;;;;;;;;;;;;;;;4990335;28;19918;-59
2022/07/28 02:57:06;;;;;;;;;;;;;;;;;;4987251;28;20389;-60
2022/07/28 02:59:31;;;;;;;;;;;;;;;;;;4988334;28;20427;-60
2022/07/28 03:01:57;;;;;;;;;;;;;;;;;;4990018;28;20015;-60
2022/07/28 03:04:55;;;;;;;;;;;;;;;;;;4985699;28;19975;-60
2022/07/28 03:07:08;;;;;;;;;;;;;;;;;;4983689;28;19917;-60
2022/07/28 03:09:33;;;;;;;;;;;;;;;;;;4988434;28;19925;-59
2022/07/28 03:11:58;;;;;;;;;;;;;;;;;;4986844;28;20389;-59
2022/07/28 03:14:23;;;;;;;;;;;;;;;;;;4992154;28;19968;-60
2022/07/28 03:16:48;;;;;;;;;;;;;;;;;;4985965;28;19925;-60
2022/07/28 03:19:14;;;;;;;;;;;;;;;;;;4990305;28;19922;-59
2022/07/28 03:21:40;;;;;;;;;;;;;;;;;;4986320;28;19923;-59
2022/07/28 03:24:05;;;;;;;;;;;;;;;;;;4988439;28;19910;-59
2022/07/28 03:26:31;;;;;;;;;;;;;;;;;;4991343;28;19965;-60
2022/07/28 03:28:56;;;;;;;;;;;;;;;;;;4988498;28;19980;-59
2022/07/28 03:31:21;;;;;;;;;;;;;;;;;;4991583;28;19922;-60
2022/07/28 03:33:46;;;;;;;;;;;;;;;;;;4987111;28;19936;-59
2022/07/28 03:36:12;;;;;;;;;;;;;;;;;;4985381;28;19917;-59
2022/07/28 03:38:37;;;;;;;;;;;;;;;;;;4990829;28;19980;-59
2022/07/28 03:41:02;;;;;;;;;;;;;;;;;;4986853;28;19922;-58
2022/07/28 03:43:27;;;;;;;;;;;;;;;;;;4994919;28;19921;-60
2022/07/28 03:45:52;;;;;;;;;;;;;;;;;;4987433;28;20026;-59
2022/07/28 03:48:20;;;;;;;;;;;;;;;;;;4976210;28;20358;-60
2022/07/28 03:50:45;;;;;;;;;;;;;;;;;;4987164;28;19919;-59
2022/07/28 03:53:10;;;;;;;;;;;;;;;;;;4992937;28;20600;-60
2022/07/28 03:55:36;;;;;;;;;;;;;;;;;;4998410;28;19918;-60
2022/07/28 03:58:01;;;;;;;;;;;;;;;;;;4995244;28;19921;-60
2022/07/28 04:00:26;;;;;;;;;;;;;;;;;;4992513;28;19929;-60
2022/07/28 04:02:51;;;;;;;;;;;;;;;;;;4998905;28;19922;-59
2022/07/28 04:05:16;;;;;;;;;;;;;;;;;;4992368;28;20600;-60
2022/07/28 04:07:42;;;;;;;;;;;;;;;;;;4997063;28;19924;-60
2022/07/28 04:10:07;;;;;;;;;;;;;;;;;;4992940;28;19925;-60
2022/07/28 04:12:32;;;;;;;;;;;;;;;;;;4994730;28;19918;-60
2022/07/28 04:14:57;;;;;;;;;;;;;;;;;;4980237;28;20044;-60
2022/07/28 04:17:22;;;;;;;;;;;;;;;;;;4993999;28;19980;-59
2022/07/28 04:19:48;;;;;;;;;;;;;;;;;;4999422;28;19945;-60
2022/07/28 04:22:13;;;;;;;;;;;;;;;;;;4993303;28;20018;-60
2022/07/28 04:24:38;;;;;;;;;;;;;;;;;;4993490;28;20011;-59
2022/07/28 04:27:03;;;;;;;;;;;;;;;;;;4997581;28;20007;-61
2022/07/28 04:29:29;;;;;;;;;;;;;;;;;;4991512;28;19949;-60
2022/07/28 04:31:54;;;;;;;;;;;;;;;;;;4999202;28;19980;-59
2022/07/28 04:34:19;;;;;;;;;;;;;;;;;;4994062;28;20040;-59
2022/07/28 04:36:44;;;;;;;;;;;;;;;;;;4994965;28;20511;-59
2022/07/28 04:39:12;;;;;;;;;;;;;;;;;;4998139;28;20550;-60
2022/07/28 04:41:40;;;;;;;;;;;;;;;;;;4993516;28;19917;-60
2022/07/28 04:44:05;;;;;;;;;;;;;;;;;;5000349;28;19921;-60
2022/07/28 04:46:31;;;;;;;;;;;;;;;;;;4993945;28;19918;-61
2022/07/28 04:48:56;;;;;;;;;;;;;;;;;;4992277;28;19925;-60
2022/07/28 04:51:22;;;;;;;;;;;;;;;;;;4997646;28;19918;-60
2022/07/28 04:53:47;;;;;;;;;;;;;;;;;;4991291;28;20008;-60
2022/07/28 04:56:12;;;;;;;;;;;;;;;;;;4999134;28;19917;-60
2022/07/28 04:58:37;;;;;;;;;;;;;;;;;;4990985;28;19925;-60
2022/07/28 05:01:03;;;;;;;;;;;;;;;;;;4990695;28;19980;-60
2022/07/28 05:03:28;;;;;;;;;;;;;;;;;;4992879;28;19952;-60
2022/07/28 05:05:53;;;;;;;;;;;;;;;;;;4985647;28;19928;-60
2022/07/28 05:08:18;;;;;;;;;;;;;;;;;;4993589;28;19914;-60
2022/07/28 05:10:43;;;;;;;;;;;;;;;;;;4990581;28;19971;-62
2022/07/28 05:13:09;;;;;;;;;;;;;;;;;;4976178;28;19926;-60
2022/07/28 05:15:34;;;;;;;;;;;;;;;;;;4995539;28;19924;-61
2022/07/28 05:17:59;;;;;;;;;;;;;;;;;;4970391;28;19929;-60
2022/07/28 05:20:25;;;;;;;;;;;;;;;;;;4993915;28;19921;-59
2022/07/28 05:22:52;;;;;;;;;;;;;;;;;;4991044;28;20012;-61
2022/07/28 05:25:17;;;;;;;;;;;;;;;;;;4990817;28;19925;-60
2022/07/28 05:27:42;;;;;;;;;;;;;;;;;;4995519;28;19922;-59
2022/07/28 05:30:08;;;;;;;;;;;;;;;;;;4992810;28;19928;-60
2022/07/28 05:32:33;;;;;;;;;;;;;;;;;;4996378;28;20013;-60
2022/07/28 05:34:58;;;;;;;;;;;;;;;;;;4989977;28;19931;-61
2022/07/28 05:37:23;;;;;;;;;;;;;;;;;;4990058;28;19948;-60
2022/07/28 05:39:49;;;;;;;;;;;;;;;;;;4993779;28;19927;-60
2022/07/28 05:42:14;;;;;;;;;;;;;;;;;;4979708;28;19917;-59
2022/07/28 05:44:39;;;;;;;;;;;;;;;;;;4995105;28;19922;-60
2022/07/28 05:47:04;;;;;;;;;;;;;;;;;;4993043;28;19918;-60
2022/07/28 05:49:30;;;;;;;;;;;;;;;;;;4997999;28;19929;-60
2022/07/28 05:51:55;;;;;;;;;;;;;;;;;;4996785;28;19934;-59
2022/07/28 05:54:20;;;;;;;;;;;;;;;;;;4993747;28;20335;-59
2022/07/28 05:56:47;;;;;;;;;;;;;;;;;;4996999;28;19922;-60
2022/07/28 05:59:13;;;;;;;;;;;;;;;;;;4995736;28;20513;-60
2022/07/28 06:01:38;;;;;;;;;;;;;;;;;;4995740;28;20421;-60
2022/07/28 06:04:04;;;;;;;;;;;;;;;;;;4993183;28;19918;-60
2022/07/28 06:06:29;;;;;;;;;;;;;;;;;;4994422;28;20647;-60
2022/07/28 06:08:54;;;;;;;;;;;;;;;;;;4995714;28;20518;-57
2022/07/28 06:11:19;;;;;;;;;;;;;;;;;;4977462;28;20300;-59
2022/07/28 06:13:48;;;;;;;;;;;;;;;;;;4996507;28;19918;-59
2022/07/28 06:16:13;;;;;;;;;;;;;;;;;;4990984;28;19932;-59
2022/07/28 06:18:38;;;;;;;;;;;;;;;;;;4963202;28;19925;-58
2022/07/28 06:21:03;;;;;;;;;;;;;;;;;;4995973;28;19928;-59
2022/07/28 06:23:29;;;;;;;;;;;;;;;;;;4993764;28;19964;-60
2022/07/28 06:25:54;;;;;;;;;;;;;;;;;;4993069;28;20041;-59
2022/07/28 06:28:19;;;;;;;;;;;;;;;;;;4966323;28;19961;-60
2022/07/28 06:30:45;;;;;;;;;;;;;;;;;;4991588;28;20743;-59
2022/07/28 06:33:10;;;;;;;;;;;;;;;;;;4993060;28;19963;-59
2022/07/28 06:35:35;;;;;;;;;;;;;;;;;;4989572;28;19917;-59
2022/07/28 06:38:00;;;;;;;;;;;;;;;;;;4992423;28;19922;-59
2022/07/28 06:40:26;;;;;;;;;;;;;;;;;;4991792;28;20017;-61
2022/07/28 06:42:51;;;;;;;;;;;;;;;;;;4993635;28;20610;-59
2022/07/28 06:45:16;;;;;;;;;;;;;;;;;;4993346;28;19918;-61
2022/07/28 06:47:41;;;;;;;;;;;;;;;;;;4992766;28;20677;-59
2022/07/28 06:50:07;;;;;;;;;;;;;;;;;;4992440;28;20339;-59
2022/07/28 06:52:32;;;;;;;;;;;;;;;;;;4991805;28;20326;-60
2022/07/28 06:54:59;;;;;;;;;;;;;;;;;;4990974;28;20702;-59
2022/07/28 06:57:24;;;;;;;;;;;;;;;;;;4991177;28;20802;-60
2022/07/28 06:59:49;;;;;;;;;;;;;;;;;;4990404;28;19930;-60
2022/07/28 07:02:14;;;;;;;;;;;;;;;;;;4993567;28;20307;-60
2022/07/28 07:04:40;;;;;;;;;;;;;;;;;;4992236;28;19988;-60
2022/07/28 07:07:05;;;;;;;;;;;;;;;;;;4993431;28;20367;-61
2022/07/28 07:09:30;;;;;;;;;;;;;;;;;;4991981;28;19928;-58
2022/07/28 07:11:55;;;;;;;;;;;;;;;;;;4992163;28;19917;-59
2022/07/28 07:14:20;;;;;;;;;;;;;;;;;;4989530;28;19925;-60
2022/07/28 07:16:46;;;;;;;;;;;;;;;;;;4992831;28;19928;-60
2022/07/28 07:19:11;;;;;;;;;;;;;;;;;;4991043;28;20944;-60
2022/07/28 07:21:36;;;;;;;;;;;;;;;;;;4991798;28;20373;-60
2022/07/28 07:24:01;;;;;;;;;;;;;;;;;;4991992;28;19918;-60
2022/07/28 07:26:27;;;;;;;;;;;;;;;;;;4990347;28;19925;-59
2022/07/28 07:28:52;;;;;;;;;;;;;;;;;;4992338;28;20080;-60
2022/07/28 07:31:17;;;;;;;;;;;;;;;;;;4990823;28;20341;-61
2022/07/28 07:33:42;;;;;;;;;;;;;;;;;;4992195;28;20623;-60
2022/07/28 07:36:07;;;;;;;;;;;;;;;;;;4989125;28;19924;-59
2022/07/28 07:38:33;;;;;;;;;;;;;;;;;;4991806;28;19922;-59
2022/07/28 07:40:58;;;;;;;;;;;;;;;;;;4990860;28;20379;-60
2022/07/28 07:43:23;;;;;;;;;;;;;;;;;;4993311;28;19963;-59
2022/07/28 07:45:48;;;;;;;;;;;;;;;;;;4991319;28;19996;-59
2022/07/28 07:48:13;;;;;;;;;;;;;;;;;;4992004;28;19922;-60
2022/07/28 07:50:39;;;;;;;;;;;;;;;;;;4991779;28;19918;-60
2022/07/28 07:53:04;;;;;;;;;;;;;;;;;;4990130;28;20679;-59
2022/07/28 07:55:29;;;;;;;;;;;;;;;;;;4991074;28;20550;-59
2022/07/28 07:57:54;;;;;;;;;;;;;;;;;;4990620;28;19943;-60
2022/07/28 08:00:20;;;;;;;;;;;;;;;;;;4990413;28;20362;-60
2022/07/28 08:02:45;;;;;;;;;;;;;;;;;;4990654;28;19928;-60
2022/07/28 08:05:10;;;;;;;;;;;;;;;;;;4989639;28;20040;-60
2022/07/28 08:07:35;;;;;;;;;;;;;;;;;;4991202;28;20004;-60
2022/07/28 08:10:01;;;;;;;;;;;;;;;;;;4991735;28;19914;-60
2022/07/28 08:12:26;;;;;;;;;;;;;;;;;;4990588;28;19949;-60
2022/07/28 08:14:51;;;;;;;;;;;;;;;;;;4991544;28;20028;-60
2022/07/28 08:17:16;;;;;;;;;;;;;;;;;;4988616;28;19984;-59
2022/07/28 08:19:41;;;;;;;;;;;;;;;;;;4992920;28;19991;-60
2022/07/28 08:22:07;;;;;;;;;;;;;;;;;;4989121;28;19975;-61
2022/07/28 08:24:32;;;;;;;;;;;;;;;;;;4990975;28;20360;-60
2022/07/28 08:26:59;;;;;;;;;;;;;;;;;;4991637;28;20147;-59
2022/07/28 08:29:24;;;;;;;;;;;;;;;;;;4989251;28;19918;-60
2022/07/28 08:31:49;;;;;;;;;;;;;;;;;;4990988;28;19917;-59
2022/07/28 08:34:14;;;;;;;;;;;;;;;;;;4990646;28;20008;-61
2022/07/28 08:36:40;;;;;;;;;;;;;;;;;;4990360;28;19917;-60
2022/07/28 08:39:05;;;;;;;;;;;;;;;;;;4994944;28;19932;-61
2022/07/28 08:41:30;;;;;;;;;;;;;;;;;;4995785;28;19921;-60
2022/07/28 08:43:55;;;;;;;;;;;;;;;;;;4993959;28;19924;-60
2022/07/28 08:46:21;;;;;;;;;;;;;;;;;;4995974;28;19944;-59
2022/07/28 08:48:46;;;;;;;;;;;;;;;;;;4992671;28;20485;-60
2022/07/28 08:51:11;;;;;;;;;;;;;;;;;;4994237;28;19925;-59
2022/07/28 08:53:36;;;;;;;;;;;;;;;;;;4995268;28;19960;-60
2022/07/28 08:56:02;;;;;;;;;;;;;;;;;;4994608;28;20485;-60
2022/07/28 08:58:27;;;;;;;;;;;;;;;;;;4994109;28;19921;-59
2022/07/28 09:00:52;;;;;;;;;;;;;;;;;;4997177;28;19922;-60
2022/07/28 09:03:17;;;;;;;;;;;;;;;;;;4994663;28;19918;-60
2022/07/28 09:05:43;;;;;;;;;;;;;;;;;;4994536;28;19921;-60
2022/07/28 09:08:08;;;;;;;;;;;;;;;;;;4994805;28;19918;-59
2022/07/28 09:10:33;;;;;;;;;;;;;;;;;;4993933;28;19917;-59
2022/07/28 09:12:58;;;;;;;;;;;;;;;;;;4994192;28;19984;-61
2022/07/28 09:15:23;;;;;;;;;;;;;;;;;;4992841;28;19920;-61
2022/07/28 09:17:49;;;;;;;;;;;;;;;;;;4993747;28;19960;-60
2022/07/28 09:20:14;;;;;;;;;;;;;;;;;;4992733;28;19976;-60
2022/07/28 09:22:39;;;;;;;;;;;;;;;;;;4991856;28;19984;-59
2022/07/28 09:25:04;;;;;;;;;;;;;;;;;;4995320;28;19918;-60
2022/07/28 09:27:29;;;;;;;;;;;;;;;;;;4996589;28;20369;-60
2022/07/28 09:29:55;;;;;;;;;;;;;;;;;;4992817;28;19917;-60
2022/07/28 09:32:20;;;;;;;;;;;;;;;;;;4994218;28;19929;-61
2022/07/28 09:34:45;;;;;;;;;;;;;;;;;;4993701;28;19928;-60
2022/07/28 09:37:10;;;;;;;;;;;;;;;;;;4993630;28;19929;-60
2022/07/28 09:39:37;;;;;;;;;;;;;;;;;;4994198;28;19932;-60
2022/07/28 09:42:02;;;;;;;;;;;;;;;;;;4993485;28;19918;-60
2022/07/28 09:44:27;;;;;;;;;;;;;;;;;;4995655;28;19925;-60
2022/07/28 09:46:52;;;;;;;;;;;;;;;;;;4993617;28;19925;-60
2022/07/28 09:49:18;;;;;;;;;;;;;;;;;;4991815;28;19986;-60
2022/07/28 09:51:43;;;;;;;;;;;;;;;;;;4993188;28;20037;-60
2022/07/28 09:54:08;;;;;;;;;;;;;;;;;;4994508;28;20270;-60
2022/07/28 09:56:34;;;;;;;;;;;;;;;;;;4993640;28;20484;-60
2022/07/28 09:58:59;;;;;;;;;;;;;;;;;;4994170;28;19961;-60
2022/07/28 10:01:24;;;;;;;;;;;;;;;;;;4990153;28;19949;-62
2022/07/28 10:03:50;;;;;;;;;;;;;;;;;;4991448;28;19936;-61
2022/07/28 10:06:15;;;;;;;;;;;;;;;;;;4989200;28;20737;-61
2022/07/28 10:08:41;;;;;;;;;;;;;;;;;;4995056;28;19926;-61
2022/07/28 10:11:06;;;;;;;;;;;;;;;;;;4993788;28;19924;-60
2022/07/28 10:13:31;;;;;;;;;;;;;;;;;;4991337;28;19918;-61
2022/07/28 10:16:12;;;;;;;;;;;;;;;;;;4993264;28;19918;-60
2022/07/28 10:18:38;;;;;;;;;;;;;;;;;;4993993;28;20652;-62
2022/07/28 10:21:03;;;;;;;;;;;;;;;;;;4992058;28;19922;-60
2022/07/28 10:23:28;;;;;;;;;;;;;;;;;;4992485;28;19925;-61
2022/07/28 10:25:53;;;;;;;;;;;;;;;;;;4992410;28;19918;-61
2022/07/28 10:28:21;;;;;;;;;;;;;;;;;;4992475;28;19917;-60
2022/07/28 10:30:46;;;;;;;;;;;;;;;;;;4993896;28;19918;-60
2022/07/28 10:33:12;;;;;;;;;;;;;;;;;;4992391;28;19924;-61
2022/07/28 10:35:37;;;;;;;;;;;;;;;;;;4991073;28;20660;-61
2022/07/28 10:38:02;;;;;;;;;;;;;;;;;;4993051;28;20667;-61
2022/07/28 10:40:28;;;;;;;;;;;;;;;;;;4991804;28;20378;-61
2022/07/28 10:42:53;;;;;;;;;;;;;;;;;;4992044;28;20371;-61
2022/07/28 10:45:19;;;;;;;;;;;;;;;;;;4993392;28;19982;-61
2022/07/28 10:47:44;;;;;;;;;;;;;;;;;;4992876;28;20477;-60
2022/07/28 10:50:09;;;;;;;;;;;;;;;;;;4993428;28;19917;-60
2022/07/28 10:52:34;;;;;;;;;;;;;;;;;;4969124;28;19918;-60
2022/07/28 10:55:00;;;;;;;;;;;;;;;;;;4981475;28;20371;-61
2022/07/28 10:57:25;;;;;;;;;;;;;;;;;;4991634;28;19961;-61
2022/07/28 10:59:50;;;;;;;;;;;;;;;;;;4991180;28;19967;-61
2022/07/28 11:02:15;;;;;;;;;;;;;;;;;;4991599;28;19918;-61
2022/07/28 11:04:41;;;;;;;;;;;;;;;;;;4990377;28;20025;-60
2022/07/28 11:07:06;;;;;;;;;;;;;;;;;;4990419;28;19918;-61
2022/07/28 11:09:31;;;;;;;;;;;;;;;;;;4989204;28;20572;-60
2022/07/28 11:11:57;;;;;;;;;;;;;;;;;;4991499;28;19918;-61
2022/07/28 11:14:22;;;;;;;;;;;;;;;;;;4992711;28;20251;-61
2022/07/28 11:16:47;;;;;;;;;;;;;;;;;;4990347;28;20016;-61
2022/07/28 11:19:14;;;;;;;;;;;;;;;;;;4992609;28;20844;-61
2022/07/28 11:21:39;;;;;;;;;;;;;;;;;;4991361;28;20438;-60
2022/07/28 11:24:04;;;;;;;;;;;;;;;;;;4991060;28;19918;-60
2022/07/28 11:26:34;;;;;;;;;;;;;;;;;;4989627;28;19997;-62
2022/07/28 11:28:59;;;;;;;;;;;;;;;;;;4992480;28;19917;-61
2022/07/28 11:31:24;;;;;;;;;;;;;;;;;;4992322;28;20293;-61
2022/07/28 11:33:49;;;;;;;;;;;;;;;;;;4992575;28;19960;-61
2022/07/28 11:36:14;;;;;;;;;;;;;;;;;;4989648;28;19964;-60
2022/07/28 11:38:40;;;;;;;;;;;;;;;;;;4990333;28;19928;-60
2022/07/28 11:41:05;;;;;;;;;;;;;;;;;;4989601;28;19929;-60
2022/07/28 11:43:30;;;;;;;;;;;;;;;;;;4992677;28;19930;-61
2022/07/28 11:45:55;;;;;;;;;;;;;;;;;;4992317;28;19917;-61
2022/07/28 11:48:21;;;;;;;;;;;;;;;;;;4990038;28;19925;-60
2022/07/28 11:50:46;;;;;;;;;;;;;;;;;;4981918;28;19918;-61
2022/07/28 11:53:11;;;;;;;;;;;;;;;;;;4991431;28;19961;-60
2022/07/28 11:55:36;;;;;;;;;;;;;;;;;;4990577;28;19949;-60
2022/07/28 11:58:02;;;;;;;;;;;;;;;;;;4989388;28;19973;-61
2022/07/28 12:00:28;;;;;;;;;;;;;;;;;;4991863;28;20446;-60
2022/07/28 12:02:54;;;;;;;;;;;;;;;;;;4992186;28;19917;-60
2022/07/28 12:05:19;;;;;;;;;;;;;;;;;;4988703;28;20473;-59
2022/07/28 12:07:44;;;;;;;;;;;;;;;;;;4980713;28;19945;-61
2022/07/28 12:10:09;;;;;;;;;;;;;;;;;;4991296;28;20588;-60
2022/07/28 12:12:34;;;;;;;;;;;;;;;;;;4997480;28;19917;-60
2022/07/28 12:15:00;;;;;;;;;;;;;;;;;;4995194;28;20069;-60
2022/07/28 12:17:25;;;;;;;;;;;;;;;;;;4994852;28;19921;-60
2022/07/28 12:19:50;;;;;;;;;;;;;;;;;;4995176;28;20032;-61
2022/07/28 12:22:15;;;;;;;;;;;;;;;;;;4995627;28;19924;-60
2022/07/28 12:24:41;;;;;;;;;;;;;;;;;;4995775;28;19981;-61
2022/07/28 12:27:06;;;;;;;;;;;;;;;;;;4994532;28;19917;-60
2022/07/28 12:29:31;;;;;;;;;;;;;;;;;;4995265;28;19975;-61
2022/07/28 12:32:00;;;;;;;;;;;;;;;;;;4993035;28;19917;-60
2022/07/28 12:34:25;;;;;;;;;;;;;;;;;;4993541;28;20299;-61
2022/07/28 12:36:51;;;;;;;;;;;;;;;;;;4993740;28;20784;-61
2022/07/28 12:39:16;;;;;;;;;;;;;;;;;;4976154;28;19928;-60
2022/07/28 12:41:41;;;;;;;;;;;;;;;;;;4996280;28;19922;-61
2022/07/28 12:44:07;;;;;;;;;;;;;;;;;;4996385;28;19917;-61
2022/07/28 12:46:32;;;;;;;;;;;;;;;;;;4996205;28;19952;-61
2022/07/28 12:48:58;;;;;;;;;;;;;;;;;;4994499;28;19963;-61
2022/07/28 12:51:23;;;;;;;;;;;;;;;;;;4996186;28;20005;-62
2022/07/28 12:53:48;;;;;;;;;;;;;;;;;;4993584;28;19924;-61
2022/07/28 12:56:13;;;;;;;;;;;;;;;;;;4994385;28;19929;-61
2022/07/28 12:58:38;;;;;;;;;;;;;;;;;;4996647;28;19976;-61
2022/07/28 13:01:07;;;;;;;;;;;;;;;;;;4994245;28;20382;-61
2022/07/28 13:03:32;;;;;;;;;;;;;;;;;;4993927;28;20283;-62
2022/07/28 13:06:01;;;;;;;;;;;;;;;;;;4995020;28;20532;-61
2022/07/28 13:08:26;;;;;;;;;;;;;;;;;;4995168;28;20006;-60
2022/07/28 13:10:51;;;;;;;;;;;;;;;;;;4996771;28;20012;-60
2022/07/28 13:13:16;;;;;;;;;;;;;;;;;;4994659;28;19939;-63
2022/07/28 13:15:42;;;;;;;;;;;;;;;;;;4995782;28;19939;-61
2022/07/28 13:18:07;;;;;;;;;;;;;;;;;;4993948;28;19928;-61
2022/07/28 13:20:35;;;;;;;;;;;;;;;;;;4995324;28;19956;-61
2022/07/28 13:23:00;;;;;;;;;;;;;;;;;;4996351;28;19921;-61
2022/07/28 13:25:25;;;;;;;;;;;;;;;;;;4974599;28;19918;-61
2022/07/28 13:27:51;;;;;;;;;;;;;;;;;;4994803;28;19922;-61
2022/07/28 13:30:16;;;;;;;;;;;;;;;;;;4995106;28;19918;-61
2022/07/28 13:32:41;;;;;;;;;;;;;;;;;;4995030;28;19921;-61
2022/07/28 13:35:06;;;;;;;;;;;;;;;;;;4986534;28;19917;-61
2022/07/28 13:37:31;;;;;;;;;;;;;;;;;;4995413;28;19922;-64
2022/07/28 13:39:57;;;;;;;;;;;;;;;;;;4995236;28;19922;-61
2022/07/28 13:42:22;;;;;;;;;;;;;;;;;;4993333;28;19929;-62
2022/07/28 13:44:48;;;;;;;;;;;;;;;;;;4993588;28;19987;-61
2022/07/28 13:47:13;;;;;;;;;;;;;;;;;;4994278;28;19917;-60
2022/07/28 13:49:38;;;;;;;;;;;;;;;;;;4994383;28;19924;-60
2022/07/28 13:52:03;;;;;;;;;;;;;;;;;;4994614;28;19918;-60
2022/07/28 13:54:29;;;;;;;;;;;;;;;;;;4996101;28;19917;-61
2022/07/28 13:56:54;;;;;;;;;;;;;;;;;;4994043;28;19914;-60
2022/07/28 13:59:19;;;;;;;;;;;;;;;;;;4993633;28;19921;-61
2022/07/28 14:01:44;;;;;;;;;;;;;;;;;;4993728;28;19925;-61
2022/07/28 14:04:10;;;;;;;;;;;;;;;;;;4992955;28;19918;-61
2022/07/28 14:06:35;;;;;;;;;;;;;;;;;;4993304;28;19925;-62
2022/07/28 14:09:00;;;;;;;;;;;;;;;;;;4996474;28;19925;-61
2022/07/28 14:11:25;;;;;;;;;;;;;;;;;;4992627;28;19921;-61
2022/07/28 14:13:51;;;;;;;;;;;;;;;;;;4992973;28;19918;-60
2022/07/28 14:16:16;;;;;;;;;;;;;;;;;;4993443;28;19918;-61
2022/07/28 14:18:41;;;;;;;;;;;;;;;;;;4991391;28;19925;-62
2022/07/28 14:21:08;;;;;;;;;;;;;;;;;;4993345;28;19975;-61
2022/07/28 14:23:33;;;;;;;;;;;;;;;;;;4992217;28;20014;-61
2022/07/28 14:25:58;;;;;;;;;;;;;;;;;;4992676;28;20399;-61
2022/07/28 14:28:23;;;;;;;;;;;;;;;;;;4993355;28;20338;-61
2022/07/28 14:30:48;;;;;;;;;;;;;;;;;;4993956;28;20449;-61
2022/07/28 14:33:14;;;;;;;;;;;;;;;;;;4992400;28;19917;-62
2022/07/28 14:35:39;;;;;;;;;;;;;;;;;;4991305;28;20409;-62
2022/07/28 14:38:07;;;;;;;;;;;;;;;;;;4978782;28;19963;-61
2022/07/28 14:40:32;;;;;;;;;;;;;;;;;;4992108;28;20462;-61
2022/07/28 14:42:58;;;;;;;;;;;;;;;;;;4991805;28;19923;-61
2022/07/28 14:45:23;;;;;;;;;;;;;;;;;;4991107;28;19928;-60
2022/07/28 14:47:48;;;;;;;;;;;;;;;;;;4990700;28;19922;-61
2022/07/28 14:50:13;;;;;;;;;;;;;;;;;;4982810;28;19922;-62
2022/07/28 14:52:38;;;;;;;;;;;;;;;;;;4991303;28;19917;-61
2022/07/28 14:55:04;;;;;;;;;;;;;;;;;;4993548;28;19965;-62
2022/07/28 14:57:29;;;;;;;;;;;;;;;;;;5023914;22;19943;-94
2022/07/28 14:59:55;;;;;;;;;;;;;;;;;;5006150;28;20245;-94
2022/07/28 15:02:22;;;;;;;;;;;;;;;;;;5022946;28;20266;-94
2022/07/28 15:04:49;;;;;;;;;;;;;;;;;;5023537;28;19913;-94
2022/07/28 15:07:14;;;;;;;;;;;;;;;;;;5023497;28;19924;-94
2022/07/28 15:09:41;;;;;;;;;;;;;;;;;;5022006;28;19909;-94
2022/07/28 15:12:06;;;;;;;;;;;;;;;;;;5040462;28;19916;-95
2022/07/28 15:14:31;;;;;;;;;;;;;;;;;;5006613;28;19909;-96
2022/07/28 15:16:59;;;;;;;;;;;;;;;;;;5021866;28;19963;-93
2022/07/28 15:19:24;;;;;;;;;;;;;;;;;;5022780;28;19909;-93
2022/07/28 15:21:49;;;;;;;;;;;;;;;;;;5007070;28;19996;-94
2022/07/28 15:24:16;;;;;;;;;;;;;;;;;;5003097;28;19918;-94
2022/07/28 15:26:41;;;;;;;;;;;;;;;;;;5002333;28;19921;-93
2022/07/28 15:29:07;;;;;;;;;;;;;;;;;;5004004;28;19916;-95
2022/07/28 15:31:32;;;;;;;;;;;;;;;;;;5002601;28;19913;-92
2022/07/28 15:33:59;;;;;;;;;;;;;;;;;;5003260;28;20152;-95
2022/07/28 15:36:24;;;;;;;;;;;;;;;;;;5015149;28;19913;-94
2022/07/28 15:38:49;;;;;;;;;;;;;;;;;;5017040;28;19921;-94
2022/07/28 15:41:15;;;;;;;;;;;;;;;;;;5016374;28;19921;-95
2022/07/28 15:43:41;;;;;;;;;;;;;;;;;;4994161;28;19953;-94
2022/07/28 15:46:09;;;;;;;;;;;;;;;;;;5002171;28;19925;-94
2022/07/28 15:48:34;;;;;;;;;;;;;;;;;;5002616;28;19906;-93
2022/07/28 15:51:00;;;;;;;;;;;;;;;;;;5018145;28;19908;-93
2022/07/28 15:53:29;;;;;;;;;;;;;;;;;;5018511;28;19952;-95
2022/07/28 15:55:55;;;;;;;;;;;;;;;;;;4986747;28;19933;-93
2022/07/28 15:58:20;;;;;;;;;;;;;;;;;;5001615;28;20392;-96
2022/07/28 16:00:45;;;;;;;;;;;;;;;;;;5008286;28;19918;-94
2022/07/28 16:03:11;;;;;;;;;;;;;;;;;;4998066;28;19909;-93
2022/07/28 16:05:37;;;;;;;;;;;;;;;;;;5010717;28;19909;-94
2022/07/28 16:08:05;;;;;;;;;;;;;;;;;;5015441;28;19906;-94
2022/07/28 16:10:30;;;;;;;;;;;;;;;;;;5012188;28;20016;-94
2022/07/28 16:12:56;;;;;;;;;;;;;;;;;;4984051;28;20000;-93
2022/07/28 16:15:25;;;;;;;;;;;;;;;;;;4984464;28;19917;-91
2022/07/28 16:18:01;;;;;;;;;;;;;;;;;;5008875;28;19943;-90
2022/07/28 16:20:30;;;;;;;;;;;;;;;;;;4998137;28;19921;-90
2022/07/28 16:22:59;;;;;;;;;;;;;;;;;;5008502;28;19913;-92
2022/07/28 16:25:43;;;;;;;;;;;;;;;;;;5023531;28;19913;-92
2022/07/28 16:28:21;;;;;;;;;;;;;;;;;;5006069;28;19978;-91
2022/07/28 16:30:51;;;;;;;;;;;;;;;;;;4991998;28;20309;-93
2022/07/28 16:33:18;;;;;;;;;;;;;;;;;;4998984;28;19902;-92
2022/07/28 16:35:47;;;;;;;;;;;;;;;;;;4990603;28;19917;-93
2022/07/28 16:38:16;;;;;;;;;;;;;;;;;;4992748;28;20729;-94